Time;durP1;ratioP1;P1;durP2;ratioP2;P2;SDS_P1;SDS_P2;PMS_P1;PMS_P2;Temp;Humidity;BMP_temperature;BMP_pressure;BME280_temperature;BME280_humidity;BME280_pressure;Samples;Min_cycle;Max_cycle;Signal;HPM_P1;HPM_P2
2021/06/14 00:00:17;;;;;;;2.15;1.60;;;13.70;92.10;;;;;;4930566;29;20036;-72
2021/06/14 00:02:45;;;;;;;4.60;2.58;;;13.90;91.70;;;;;;4926770;29;20039;-71
2021/06/14 00:05:20;;;;;;;3.28;2.88;;;14.10;91.30;;;;;;4927840;29;20059;-70
2021/06/14 00:07:47;;;;;;;3.88;2.67;;;14.30;91.40;;;;;;4931840;29;20486;-70
2021/06/14 00:10:15;;;;;;;4.38;2.70;;;14.70;91.50;;;;;;4929907;29;20027;-70
2021/06/14 00:12:43;;;;;;;4.50;2.85;;;15.20;90.80;;;;;;4932288;29;20027;-71
2021/06/14 00:15:11;;;;;;;1.67;1.40;;;15.40;89.90;;;;;;4911959;29;20086;-71
2021/06/14 00:17:38;;;;;;;1.77;1.25;;;15.60;89.10;;;;;;4918390;29;20076;-71
2021/06/14 00:20:10;;;;;;;5.05;1.15;;;15.80;87.00;;;;;;4925960;29;20043;-72
2021/06/14 00:22:41;;;;;;;3.38;2.10;;;16.00;88.70;;;;;;4928774;29;20036;-75
2021/06/14 00:25:11;;;;;;;2.25;1.23;;;16.40;86.70;;;;;;4927603;29;20035;-73
2021/06/14 00:27:39;;;;;;;2.90;1.77;;;16.80;86.70;;;;;;4924120;29;20035;-72
2021/06/14 00:30:07;;;;;;;2.88;1.83;;;17.30;85.60;;;;;;4923435;29;20040;-71
2021/06/14 00:32:35;;;;;;;3.35;1.85;;;17.50;83.50;;;;;;4925653;29;20122;-71
2021/06/14 00:35:03;;;;;;;2.38;1.58;;;17.90;82.60;;;;;;4925323;29;20042;-72
2021/06/14 00:37:30;;;;;;;2.30;1.80;;;18.40;82.30;;;;;;4923835;29;20027;-72
2021/06/14 00:39:58;;;;;;;2.05;1.80;;;18.30;79.20;;;;;;4924437;29;20136;-72
2021/06/14 00:42:25;;;;;;;2.47;1.75;;;18.20;80.50;;;;;;4928275;29;20032;-72
2021/06/14 00:44:52;;;;;;;3.47;1.50;;;18.20;80.80;;;;;;4924221;29;20099;-71
2021/06/14 00:47:20;;;;;;;3.72;2.17;;;18.40;81.10;;;;;;4920122;29;20047;-72
2021/06/14 00:49:48;;;;;;;2.47;2.03;;;18.80;80.40;;;;;;4921272;29;20078;-71
2021/06/14 00:52:15;;;;;;;3.33;1.85;;;19.30;80.50;;;;;;4922642;29;20067;-72
2021/06/14 00:54:43;;;;;;;4.57;1.60;;;19.90;78.90;;;;;;4927792;29;20453;-72
2021/06/14 00:57:10;;;;;;;2.40;1.65;;;19.90;76.90;;;;;;4924568;29;20067;-71
2021/06/14 00:59:40;;;;;;;2.97;1.70;;;20.00;75.90;;;;;;4922472;29;20024;-72
2021/06/14 01:02:08;;;;;;;2.05;1.48;;;20.70;75.70;;;;;;4925917;29;20043;-72
2021/06/14 01:04:36;;;;;;;1.60;1.30;;;21.50;72.70;;;;;;4927443;29;20122;-71
2021/06/14 01:07:04;;;;;;;2.08;1.13;;;22.40;75.00;;;;;;4924887;29;20495;-71
2021/06/14 01:09:32;;;;;;;2.10;1.40;;;23.10;68.70;;;;;;4924692;29;20407;-72
2021/06/14 01:12:08;;;;;;;4.78;1.40;;;23.30;67.10;;;;;;4926702;29;20036;-72
2021/06/14 01:14:39;;;;;;;1.70;1.38;;;23.40;68.80;;;;;;4927429;29;20118;-70
2021/06/14 01:17:17;;;;;;;1.77;1.00;;;23.90;65.50;;;;;;4929160;29;20115;-71
2021/06/14 01:20:09;;;;;;;2.78;1.30;;;24.40;65.90;;;;;;4929436;29;20082;-71
2021/06/14 01:23:04;;;;;;;1.42;0.80;;;24.50;64.30;;;;;;4926410;29;20607;-71
2021/06/14 01:25:37;;;;;;;2.63;0.70;;;24.50;63.20;;;;;;4924666;29;20175;-70
2021/06/14 01:28:07;;;;;;;0.50;0.50;;;25.00;62.50;;;;;;4924023;29;20028;-73
2021/06/14 01:30:38;;;;;;;3.38;2.47;;;24.80;61.30;;;;;;4929187;29;20035;-73
2021/06/14 01:33:09;;;;;;;62.10;31.75;;;24.80;60.50;;;;;;4927267;29;20050;-72
2021/06/14 01:35:47;;;;;;;41.55;25.55;;;24.70;60.40;;;;;;4928384;29;20486;-72
2021/06/14 01:38:17;;;;;;;5.95;3.30;;;24.70;61.30;;;;;;4924748;29;20078;-73
2021/06/14 01:40:47;;;;;;;6.93;4.80;;;25.00;61.10;;;;;;4914310;29;20032;-75
2021/06/14 01:43:18;;;;;;;1.35;0.82;;;25.50;61.00;;;;;;4923057;29;20074;-69
2021/06/14 01:45:54;;;;;;;1.65;0.35;;;25.60;60.40;;;;;;4925390;29;20370;-71
2021/06/14 01:48:22;;;;;;;15.02;9.30;;;25.90;60.10;;;;;;4927968;29;20490;-73
2021/06/14 01:50:51;;;;;;;4.68;3.10;;;25.70;56.70;;;;;;4893044;29;20391;-72
2021/06/14 01:53:19;;;;;;;27.70;18.38;;;25.70;58.30;;;;;;4925085;29;20031;-72
2021/06/14 01:55:48;;;;;;;2.60;1.90;;;25.80;58.30;;;;;;4918695;29;20038;-72
2021/06/14 01:58:18;;;;;;;0.68;0.40;;;26.10;59.50;;;;;;4922096;29;20035;-71
2021/06/14 02:00:46;;;;;;;0.50;0.30;;;26.10;58.90;;;;;;4924301;29;20819;-70
2021/06/14 02:03:17;;;;;;;6.45;4.47;;;26.40;57.40;;;;;;4926752;29;20093;-72
2021/06/14 02:05:46;;;;;;;2.65;1.65;;;26.20;57.40;;;;;;4925060;29;20028;-72
2021/06/14 02:08:15;;;;;;;1.75;0.70;;;26.20;58.10;;;;;;4926797;29;20023;-73
2021/06/14 02:10:43;;;;;;;1.05;0.60;;;26.10;56.80;;;;;;4925658;29;20088;-70
2021/06/14 02:13:12;;;;;;;0.35;0.30;;;26.20;55.20;;;;;;4924071;29;20063;-70
2021/06/14 02:15:39;;;;;;;0.52;0.30;;;25.80;58.40;;;;;;4923220;29;20040;-73
2021/06/14 02:18:10;;;;;;;1.17;0.65;;;25.70;60.40;;;;;;4926025;29;20111;-72
2021/06/14 02:20:39;;;;;;;0.50;0.38;;;26.00;59.00;;;;;;4913066;29;20633;-72
2021/06/14 02:23:06;;;;;;;0.98;0.40;;;25.40;58.00;;;;;;4922514;29;20038;-72
2021/06/14 02:25:34;;;;;;;1.25;0.20;;;25.10;60.90;;;;;;4924558;29;20026;-71
2021/06/14 02:28:02;;;;;;;0.30;0.30;;;25.00;60.10;;;;;;4918864;29;20513;-70
2021/06/14 02:30:30;;;;;;;0.35;0.28;;;24.00;62.10;;;;;;4920445;29;20035;-70
2021/06/14 02:32:57;;;;;;;0.50;0.30;;;23.70;62.20;;;;;;4925374;29;20376;-70
2021/06/14 02:35:26;;;;;;;1.42;0.30;;;23.50;62.50;;;;;;4923517;29;20110;-69
2021/06/14 02:38:01;;;;;;;1.58;0.40;;;23.60;64.80;;;;;;4925820;29;20091;-70
2021/06/14 02:40:31;;;;;;;0.60;0.43;;;23.70;63.60;;;;;;4923041;29;20032;-70
2021/06/14 02:43:07;;;;;;;0.55;0.40;;;24.40;62.50;;;;;;4923614;29;20038;-71
2021/06/14 02:45:37;;;;;;;0.47;0.25;;;24.10;62.80;;;;;;4925421;29;20036;-70
2021/06/14 02:48:06;;;;;;;0.35;0.10;;;23.60;62.80;;;;;;4923868;29;20427;-70
2021/06/14 02:50:37;;;;;;;0.68;0.50;;;23.90;64.30;;;;;;4925861;29;20496;-71
2021/06/14 02:53:10;;;;;;;0.77;0.30;;;23.70;62.80;;;;;;4923912;29;20031;-72
2021/06/14 02:55:53;;;;;;;0.47;0.30;;;24.60;63.10;;;;;;4928299;29;20095;-70
2021/06/14 02:58:31;;;;;;;1.98;0.30;;;25.30;61.60;;;;;;4926330;29;20039;-69
2021/06/14 03:00:59;;;;;;;1.73;0.38;;;25.10;62.10;;;;;;4910991;29;20055;-70
2021/06/14 03:03:27;;;;;;;0.85;0.35;;;24.80;61.90;;;;;;4904861;29;20043;-70
2021/06/14 03:05:56;;;;;;;0.22;0.20;;;24.10;61.90;;;;;;4924621;29;20483;-68
2021/06/14 03:08:25;;;;;;;0.35;0.20;;;23.50;64.40;;;;;;4924601;29;20490;-69
2021/06/14 03:10:56;;;;;;;1.77;0.38;;;23.00;63.80;;;;;;4926031;29;20135;-69
2021/06/14 03:13:24;;;;;;;0.20;0.20;;;22.20;66.10;;;;;;4921561;29;20031;-70
2021/06/14 03:15:52;;;;;;;0.75;0.43;;;21.90;67.90;;;;;;4923202;29;20950;-71
2021/06/14 03:18:23;;;;;;;0.82;0.28;;;21.50;69.70;;;;;;4918243;29;20042;-71
2021/06/14 03:20:56;;;;;;;0.68;0.30;;;21.40;73.30;;;;;;4921708;29;20467;-70
2021/06/14 03:23:23;;;;;;;0.70;0.28;;;21.40;70.40;;;;;;4918205;29;20471;-71
2021/06/14 03:25:52;;;;;;;0.30;0.17;;;21.10;70.20;;;;;;4922333;29;20125;-71
2021/06/14 03:28:20;;;;;;;0.30;0.22;;;21.20;72.90;;;;;;4921857;29;20376;-71
2021/06/14 03:30:49;;;;;;;1.48;0.35;;;21.30;72.50;;;;;;4923235;29;21997;-71
2021/06/14 03:33:19;;;;;;;1.55;0.25;;;21.30;70.60;;;;;;4914470;29;20052;-71
2021/06/14 03:35:48;;;;;;;0.85;0.57;;;21.30;70.00;;;;;;4923763;29;20510;-72
2021/06/14 03:38:15;;;;;;;0.50;0.10;;;21.20;69.90;;;;;;4920552;29;20032;-72
2021/06/14 03:40:43;;;;;;;0.95;0.50;;;21.30;70.50;;;;;;4921572;29;20039;-72
2021/06/14 03:43:10;;;;;;;1.38;0.30;;;21.50;70.60;;;;;;4918337;29;20031;-71
2021/06/14 03:45:38;;;;;;;3.22;0.20;;;21.30;71.00;;;;;;4921831;29;20759;-70
2021/06/14 03:48:06;;;;;;;2.35;0.35;;;21.10;70.70;;;;;;4921206;29;20035;-69
2021/06/14 03:50:33;;;;;;;1.02;0.30;;;20.90;71.40;;;;;;4921616;29;20044;-71
2021/06/14 03:53:02;;;;;;;0.20;0.20;;;20.80;71.60;;;;;;4921236;29;20118;-71
2021/06/14 03:55:30;;;;;;;0.60;0.30;;;20.60;72.10;;;;;;4924150;29;20036;-70
2021/06/14 03:57:58;;;;;;;0.85;0.40;;;20.60;72.40;;;;;;4921070;29;20040;-70
2021/06/14 04:00:25;;;;;;;0.68;0.40;;;20.60;73.10;;;;;;4921425;29;20094;-70
2021/06/14 04:02:53;;;;;;;2.15;0.30;;;20.70;73.40;;;;;;4913223;28;22400;-69
2021/06/14 04:05:21;;;;;;;1.60;1.05;;;20.60;73.80;;;;;;4920010;29;20032;-68
2021/06/14 04:07:48;;;;;;;1.23;0.50;;;20.50;73.40;;;;;;4927713;29;20102;-70
2021/06/14 04:10:16;;;;;;;0.43;0.32;;;20.50;74.10;;;;;;4913065;29;20139;-70
2021/06/14 04:12:43;;;;;;;1.52;0.60;;;20.60;74.20;;;;;;4923035;29;20318;-69
2021/06/14 04:15:11;;;;;;;0.70;0.32;;;20.70;74.00;;;;;;4917181;29;20619;-71
2021/06/14 04:17:38;;;;;;;0.45;0.20;;;20.80;73.80;;;;;;4920697;29;20040;-73
2021/06/14 04:20:08;;;;;;;0.85;0.70;;;20.60;73.30;;;;;;4923691;29;20475;-75
2021/06/14 04:22:35;;;;;;;0.63;0.45;;;20.60;74.90;;;;;;4920378;29;20040;-72
2021/06/14 04:25:04;;;;;;;2.53;1.13;;;20.60;75.00;;;;;;4921990;29;20040;-73
2021/06/14 04:27:31;;;;;;;1.05;0.50;;;20.40;74.10;;;;;;4925408;29;20102;-73
2021/06/14 04:29:59;;;;;;;7.45;1.23;;;20.20;74.50;;;;;;4927422;29;20031;-74
2021/06/14 04:32:26;;;;;;;1.60;0.70;;;19.90;75.70;;;;;;4927286;29;20513;-74
2021/06/14 04:34:54;;;;;;;1.33;0.43;;;19.90;75.60;;;;;;4917975;29;20513;-73
2021/06/14 04:37:23;;;;;;;1.42;0.73;;;19.80;75.80;;;;;;4928646;29;20036;-74
2021/06/14 04:39:50;;;;;;;0.77;0.43;;;19.80;75.40;;;;;;4916525;29;20611;-76
2021/06/14 04:42:17;;;;;;;2.47;0.57;;;19.70;76.10;;;;;;4927200;29;20569;-72
2021/06/14 04:44:45;;;;;;;1.90;0.60;;;19.60;76.60;;;;;;4924249;29;20657;-75
2021/06/14 04:47:12;;;;;;;1.40;0.95;;;19.50;78.10;;;;;;4924942;29;20491;-74
2021/06/14 04:49:40;;;;;;;1.85;0.70;;;19.40;77.40;;;;;;4927443;29;20097;-74
2021/06/14 04:52:07;;;;;;;0.63;0.40;;;19.50;78.90;;;;;;4924340;29;20027;-76
2021/06/14 04:54:35;;;;;;;0.55;0.30;;;19.50;77.90;;;;;;4929774;29;20123;-75
2021/06/14 04:57:02;;;;;;;1.27;0.40;;;19.50;78.00;;;;;;4927141;29;20043;-72
2021/06/14 04:59:30;;;;;;;1.08;0.50;;;19.50;77.70;;;;;;4925910;29;20058;-73
2021/06/14 05:01:57;;;;;;;4.22;1.58;;;19.40;78.80;;;;;;4929016;29;20051;-74
2021/06/14 05:04:25;;;;;;;1.35;0.80;;;19.40;78.60;;;;;;4917587;29;20980;-74
2021/06/14 05:06:52;;;;;;;1.75;0.60;;;19.30;79.20;;;;;;4923645;29;20063;-73
2021/06/14 05:09:20;;;;;;;0.50;0.30;;;19.30;78.90;;;;;;4926273;29;20038;-74
2021/06/14 05:11:47;;;;;;;1.40;0.60;;;19.30;80.00;;;;;;4927190;29;20031;-74
2021/06/14 05:14:15;;;;;;;3.92;0.65;;;19.30;79.20;;;;;;4926408;29;20036;-73
2021/06/14 05:16:43;;;;;;;1.25;0.77;;;19.30;79.90;;;;;;4925001;29;20038;-73
2021/06/14 05:19:11;;;;;;;0.65;0.43;;;19.20;79.00;;;;;;4925973;29;20038;-73
2021/06/14 05:21:38;;;;;;;1.85;0.60;;;19.10;80.10;;;;;;4926788;29;20097;-74
2021/06/14 05:24:06;;;;;;;2.05;0.57;;;19.10;80.40;;;;;;4923879;29;20044;-73
2021/06/14 05:26:34;;;;;;;1.25;0.40;;;19.10;79.80;;;;;;4927064;29;20082;-73
2021/06/14 05:29:01;;;;;;;1.33;0.30;;;19.00;80.00;;;;;;4925001;29;20032;-73
2021/06/14 05:31:29;;;;;;;0.30;0.30;;;19.00;80.30;;;;;;4928281;29;20482;-73
2021/06/14 05:33:56;;;;;;;1.50;0.40;;;18.90;80.40;;;;;;4925175;29;20577;-74
2021/06/14 05:36:23;;;;;;;0.60;0.30;;;19.00;80.10;;;;;;4920635;29;20039;-73
2021/06/14 05:38:51;;;;;;;1.17;0.50;;;19.00;80.20;;;;;;4924462;29;20046;-74
2021/06/14 05:41:18;;;;;;;1.25;0.40;;;19.00;80.60;;;;;;4923986;29;20040;-73
2021/06/14 05:43:45;;;;;;;1.10;0.60;;;19.00;80.30;;;;;;4925688;29;20036;-72
2021/06/14 05:46:14;;;;;;;0.47;0.22;;;18.80;81.70;;;;;;4928359;29;20514;-70
2021/06/14 05:48:41;;;;;;;1.25;0.30;;;18.80;81.80;;;;;;4925630;29;20500;-71
2021/06/14 05:51:09;;;;;;;0.90;0.43;;;18.80;82.30;;;;;;4920457;29;20050;-69
2021/06/14 05:53:36;;;;;;;1.08;0.40;;;18.80;81.90;;;;;;4922425;29;20055;-72
2021/06/14 05:56:04;;;;;;;1.58;0.50;;;18.70;81.80;;;;;;4925343;29;20394;-68
2021/06/14 05:58:31;;;;;;;1.00;0.77;;;18.70;81.40;;;;;;4926106;29;20027;-68
2021/06/14 06:00:59;;;;;;;0.50;0.32;;;18.70;81.50;;;;;;4928815;29;20371;-69
2021/06/14 06:03:26;;;;;;;1.45;0.60;;;18.70;81.70;;;;;;4926194;29;20035;-69
2021/06/14 06:05:53;;;;;;;1.10;0.38;;;18.70;81.80;;;;;;4925302;29;20414;-69
2021/06/14 06:08:21;;;;;;;0.98;0.65;;;18.70;81.70;;;;;;4906114;29;20364;-71
2021/06/14 06:10:48;;;;;;;0.80;0.50;;;18.70;81.30;;;;;;4927602;29;20032;-69
2021/06/14 06:13:15;;;;;;;0.88;0.40;;;18.70;81.40;;;;;;4929818;29;20019;-69
2021/06/14 06:15:43;;;;;;;1.60;0.95;;;18.70;81.20;;;;;;4925774;29;20031;-68
2021/06/14 06:18:11;;;;;;;1.35;0.40;;;18.60;81.20;;;;;;4925141;29;20475;-70
2021/06/14 06:20:39;;;;;;;1.83;0.50;;;18.50;81.40;;;;;;4922386;29;20467;-69
2021/06/14 06:23:07;;;;;;;2.72;1.08;;;18.30;81.80;;;;;;4928801;29;20031;-69
2021/06/14 06:25:34;;;;;;;0.60;0.50;;;18.30;82.80;;;;;;4927497;29;20036;-69
2021/06/14 06:28:02;;;;;;;0.90;0.75;;;18.10;83.20;;;;;;4924176;29;20416;-68
2021/06/14 06:30:36;;;;;;;1.30;0.60;;;17.90;84.50;;;;;;4919768;29;20040;-71
2021/06/14 06:33:05;;;;;;;1.00;0.52;;;17.90;83.90;;;;;;4925748;29;20382;-69
2021/06/14 06:35:33;;;;;;;1.27;0.60;;;17.80;84.40;;;;;;4922710;29;20024;-69
2021/06/14 06:38:02;;;;;;;1.30;0.70;;;17.70;85.10;;;;;;4926601;29;20032;-70
2021/06/14 06:40:29;;;;;;;6.25;2.50;;;17.60;85.90;;;;;;4924494;29;20035;-69
2021/06/14 06:42:57;;;;;;;15.68;6.95;;;17.40;87.70;;;;;;4927683;29;20360;-69
2021/06/14 06:45:26;;;;;;;13.30;7.10;;;17.30;89.30;;;;;;4924638;29;20435;-69
2021/06/14 06:47:54;;;;;;;9.95;4.32;;;17.10;90.30;;;;;;4931259;29;20115;-69
2021/06/14 06:50:21;;;;;;;5.68;2.63;;;16.90;90.40;;;;;;4924382;29;20035;-69
2021/06/14 06:52:49;;;;;;;5.45;4.00;;;16.80;91.10;;;;;;4924141;29;20020;-68
2021/06/14 06:55:17;;;;;;;5.78;2.50;;;16.80;91.70;;;;;;4923787;29;20402;-70
2021/06/14 06:57:46;;;;;;;6.10;3.10;;;16.70;92.00;;;;;;4922412;29;20053;-69
2021/06/14 07:00:17;;;;;;;3.67;2.25;;;16.60;92.30;;;;;;4923269;29;20119;-70
2021/06/14 07:02:44;;;;;;;3.13;2.03;;;16.50;92.50;;;;;;4923150;29;20063;-70
2021/06/14 07:05:13;;;;;;;3.20;1.50;;;16.40;92.40;;;;;;4928289;29;20032;-69
2021/06/14 07:07:40;;;;;;;2.72;1.67;;;16.40;92.70;;;;;;4923202;29;20040;-68
2021/06/14 07:10:09;;;;;;;2.22;1.65;;;16.30;93.00;;;;;;4921748;29;20039;-69
2021/06/14 07:12:37;;;;;;;2.22;1.20;;;16.20;93.00;;;;;;4924608;29;20104;-69
2021/06/14 07:15:11;;;;;;;3.45;2.20;;;16.20;93.30;;;;;;4924053;29;20024;-71
2021/06/14 07:17:43;;;;;;;1.90;1.63;;;16.10;93.50;;;;;;4927157;29;20066;-70
2021/06/14 07:20:15;;;;;;;2.95;1.48;;;16.00;93.70;;;;;;4925938;29;20024;-71
2021/06/14 07:22:43;;;;;;;3.30;1.75;;;16.00;94.00;;;;;;4925754;29;20123;-71
2021/06/14 07:25:11;;;;;;;3.05;2.30;;;15.90;94.10;;;;;;4928181;29;20135;-70
2021/06/14 07:27:40;;;;;;;3.25;1.92;;;15.80;94.40;;;;;;4921450;29;20036;-70
2021/06/14 07:30:11;;;;;;;4.88;2.40;;;15.70;94.40;;;;;;4926938;29;20055;-71
2021/06/14 07:32:39;;;;;;;2.97;1.95;;;15.60;94.70;;;;;;4924237;29;20036;-70
2021/06/14 07:35:07;;;;;;;3.03;2.08;;;15.50;94.70;;;;;;4921680;29;20038;-69
2021/06/14 07:37:35;;;;;;;4.85;2.65;;;15.40;94.90;;;;;;4921390;29;20024;-72
2021/06/14 07:40:03;;;;;;;2.53;1.83;;;15.30;95.10;;;;;;4922045;29;20065;-72
2021/06/14 07:42:31;;;;;;;5.13;2.53;;;15.20;95.20;;;;;;4926858;29;20027;-72
2021/06/14 07:44:58;;;;;;;6.43;2.60;;;15.20;95.40;;;;;;4923854;29;20082;-73
2021/06/14 07:47:26;;;;;;;6.30;3.38;;;15.10;95.90;;;;;;4921783;29;20044;-70
2021/06/14 07:49:53;;;;;;;4.43;3.30;;;15.00;95.80;;;;;;4923028;29;20034;-72
2021/06/14 07:52:21;;;;;;;5.93;3.58;;;14.90;95.70;;;;;;4921915;29;20050;-69
2021/06/14 07:54:49;;;;;;;5.25;3.70;;;14.90;95.70;;;;;;4926325;29;20028;-72
2021/06/14 07:57:16;;;;;;;7.65;4.05;;;14.80;95.90;;;;;;4929929;29;20066;-72
2021/06/14 07:59:44;;;;;;;6.53;4.28;;;14.70;96.10;;;;;;4907578;29;20032;-71
2021/06/14 08:02:12;;;;;;;8.38;4.53;;;14.60;96.30;;;;;;4927677;29;20036;-68
2021/06/14 08:04:40;;;;;;;5.88;3.85;;;14.50;96.50;;;;;;4926874;29;20043;-70
2021/06/14 08:07:07;;;;;;;8.20;4.78;;;14.40;96.70;;;;;;4928474;29;20024;-69
2021/06/14 08:09:35;;;;;;;9.07;4.47;;;14.40;96.90;;;;;;4926776;29;20032;-70
2021/06/14 08:12:03;;;;;;;7.72;4.72;;;14.50;97.00;;;;;;4925867;29;20515;-71
2021/06/14 08:14:31;;;;;;;6.45;4.22;;;14.40;97.00;;;;;;4927919;29;20383;-72
2021/06/14 08:17:01;;;;;;;5.15;3.08;;;14.40;96.80;;;;;;4928313;29;20122;-71
2021/06/14 08:20:11;;;;;;;5.82;3.63;;;14.30;96.80;;;;;;4922475;29;20390;-72
2021/06/14 08:25:06;;;;;;;5.65;3.05;;;14.20;96.70;;;;;;4924183;29;20086;-70
2021/06/14 08:27:39;;;;;;;3.83;2.63;;;14.10;96.80;;;;;;4924964;29;20083;-70
2021/06/14 08:30:13;;;;;;;7.30;4.32;;;14.10;97.00;;;;;;4925759;29;20031;-70
2021/06/14 08:32:41;;;;;;;4.97;3.30;;;14.00;97.10;;;;;;4926638;29;20032;-69
2021/06/14 08:35:14;;;;;;;6.63;3.75;;;14.00;97.30;;;;;;4930402;29;20019;-69
2021/06/14 08:37:46;;;;;;;4.78;3.28;;;13.90;97.40;;;;;;4929643;29;20110;-72
2021/06/14 08:40:17;;;;;;;7.03;4.05;;;14.00;97.50;;;;;;4925981;29;20498;-71
2021/06/14 08:42:45;;;;;;;14.65;4.45;;;14.00;97.60;;;;;;4929431;29;20123;-71
2021/06/14 08:45:14;;;;;;;5.45;3.50;;;13.90;97.70;;;;;;4927440;29;20044;-71
2021/06/14 08:47:45;;;;;;;12.57;4.45;;;13.90;97.80;;;;;;4925893;29;20386;-70
2021/06/14 08:50:15;;;;;;;6.47;4.00;;;13.80;97.90;;;;;;4926257;29;20467;-72
2021/06/14 08:52:43;;;;;;;6.18;3.30;;;13.80;98.10;;;;;;4911145;29;20036;-70
2021/06/14 08:55:13;;;;;;;8.50;3.63;;;13.80;98.00;;;;;;4925902;29;20544;-73
2021/06/14 08:57:40;;;;;;;8.82;4.60;;;13.70;98.00;;;;;;4927977;29;20028;-70
2021/06/14 09:00:18;;;;;;;9.07;4.22;;;13.70;98.30;;;;;;4929837;29;21154;-72
2021/06/14 09:02:47;;;;;;;4.97;3.42;;;13.60;98.20;;;;;;4926552;29;20890;-70
2021/06/14 09:05:17;;;;;;;5.68;3.10;;;13.50;98.20;;;;;;4923649;29;20044;-70
2021/06/14 09:07:44;;;;;;;6.10;3.90;;;13.40;98.20;;;;;;4912350;29;20386;-73
2021/06/14 09:10:27;;;;;;;7.35;3.55;;;13.40;98.30;;;;;;4929116;29;20510;-71
2021/06/14 09:12:56;;;;;;;5.40;3.13;;;13.30;98.40;;;;;;4926195;29;20042;-71
2021/06/14 09:15:27;;;;;;;5.28;3.72;;;13.30;98.50;;;;;;4927753;29;20028;-69
2021/06/14 09:17:55;;;;;;;5.38;4.05;;;13.20;98.90;;;;;;4927228;29;20035;-73
2021/06/14 09:20:25;;;;;;;5.47;3.20;;;13.20;98.80;;;;;;4927336;29;20043;-69
2021/06/14 09:22:54;;;;;;;8.60;4.30;;;13.10;98.80;;;;;;4927073;29;20483;-69
2021/06/14 09:25:22;;;;;;;7.03;4.70;;;13.10;98.80;;;;;;4923392;29;20055;-71
2021/06/14 09:27:52;;;;;;;6.90;5.78;;;13.00;98.80;;;;;;4925078;29;20064;-71
2021/06/14 09:30:29;;;;;;;15.55;8.85;;;13.00;99.10;;;;;;4924791;29;20028;-71
2021/06/14 09:33:05;;;;;;;16.42;9.82;;;13.00;99.40;;;;;;4925753;29;20032;-70
2021/06/14 09:35:45;;;;;;;16.33;9.77;;;13.00;99.70;;;;;;4931951;29;20024;-71
2021/06/14 09:38:16;;;;;;;14.40;9.48;;;13.00;99.90;;;;;;4928908;29;20035;-73
2021/06/14 09:40:50;;;;;;;18.58;11.63;;;13.00;99.90;;;;;;4924227;29;20031;-74
2021/06/14 09:43:38;;;;;;;21.40;12.90;;;13.00;99.90;;;;;;4925050;29;20031;-73
2021/06/14 09:46:32;;;;;;;28.38;15.40;;;13.00;99.90;;;;;;4925075;29;20054;-73
2021/06/14 09:49:04;;;;;;;31.38;16.42;;;13.00;99.90;;;;;;4924278;29;20079;-71
2021/06/14 09:51:34;;;;;;;30.13;15.57;;;13.00;99.90;;;;;;4925450;29;21520;-73
2021/06/14 09:54:03;;;;;;;24.15;14.20;;;13.00;99.90;;;;;;4923234;29;20032;-72
2021/06/14 09:56:38;;;;;;;21.23;10.90;;;13.00;99.90;;;;;;4922098;29;20387;-72
2021/06/14 09:59:10;;;;;;;13.45;8.23;;;13.00;99.90;;;;;;4923969;29;20028;-69
2021/06/14 10:01:39;;;;;;;9.07;6.20;;;13.00;99.90;;;;;;4925623;29;20035;-74
2021/06/14 10:04:12;;;;;;;10.10;5.28;;;12.90;99.90;;;;;;4926024;29;20039;-73
2021/06/14 10:06:44;;;;;;;9.25;4.55;;;12.90;99.90;;;;;;4923797;29;20038;-73
2021/06/14 10:09:14;;;;;;;8.88;3.85;;;12.80;99.90;;;;;;4925224;29;20033;-75
2021/06/14 10:11:43;;;;;;;7.53;4.60;;;12.80;99.90;;;;;;4927510;29;20034;-73
2021/06/14 10:14:14;;;;;;;8.40;5.93;;;12.60;99.90;;;;;;4923634;29;20151;-70
2021/06/14 10:16:43;;;;;;;11.80;7.28;;;12.60;99.90;;;;;;4925055;29;20035;-73
2021/06/14 10:19:13;;;;;;;13.15;7.75;;;12.60;99.90;;;;;;4926497;29;20602;-75
2021/06/14 10:21:49;;;;;;;12.80;8.05;;;12.70;99.90;;;;;;4909181;29;21546;-73
2021/06/14 10:24:19;;;;;;;10.80;8.40;;;12.60;99.90;;;;;;4925053;29;21158;-74
2021/06/14 10:26:48;;;;;;;5.57;4.55;;;12.60;99.90;;;;;;4922482;29;20031;-72
2021/06/14 10:29:17;;;;;;;4.88;3.42;;;12.60;99.90;;;;;;4924656;29;22399;-73
2021/06/14 10:31:48;;;;;;;4.22;2.58;;;12.60;99.90;;;;;;4922914;29;20028;-70
2021/06/14 10:34:16;;;;;;;4.43;3.10;;;12.60;99.90;;;;;;4922640;29;20052;-71
2021/06/14 10:36:53;;;;;;;2.95;2.33;;;12.70;99.90;;;;;;4925447;29;20044;-73
2021/06/14 10:39:29;;;;;;;2.45;2.05;;;12.70;99.90;;;;;;4927632;29;20051;-73
2021/06/14 10:41:58;;;;;;;2.90;2.30;;;12.70;99.90;;;;;;4925918;29;20063;-72
2021/06/14 10:44:25;;;;;;;2.75;1.65;;;12.70;99.90;;;;;;4924078;29;20051;-73
2021/06/14 10:46:53;;;;;;;2.13;1.55;;;12.70;99.90;;;;;;4927020;29;20020;-73
2021/06/14 10:49:20;;;;;;;1.73;1.25;;;12.60;99.90;;;;;;4924660;29;20039;-72
2021/06/14 10:51:59;;;;;;;2.22;1.25;;;12.70;99.90;;;;;;4926071;29;20024;-72
2021/06/14 10:54:42;;;;;;;1.70;0.80;;;12.60;99.90;;;;;;4921270;29;20144;-72
2021/06/14 10:57:12;;;;;;;2.30;0.80;;;12.60;99.90;;;;;;4923580;29;20051;-70
2021/06/14 10:59:42;;;;;;;1.27;0.80;;;12.50;99.90;;;;;;4923468;29;20860;-70
2021/06/14 11:02:11;;;;;;;1.38;1.17;;;12.50;99.90;;;;;;4923300;29;20128;-72
2021/06/14 11:04:39;;;;;;;1.77;0.77;;;12.40;99.90;;;;;;4923268;29;20498;-72
2021/06/14 11:07:06;;;;;;;1.15;0.70;;;12.40;99.90;;;;;;4928303;29;20043;-71
2021/06/14 11:09:44;;;;;;;1.98;0.60;;;12.40;99.90;;;;;;4924711;29;20028;-70
2021/06/14 11:12:24;;;;;;;1.77;0.50;;;12.30;99.90;;;;;;4927709;29;20023;-68
2021/06/14 11:14:52;;;;;;;0.90;0.60;;;12.30;99.90;;;;;;4928979;29;20368;-69
2021/06/14 11:17:25;;;;;;;1.67;0.90;;;12.30;99.90;;;;;;4923821;29;20036;-68
2021/06/14 11:20:08;;;;;;;1.17;0.60;;;12.30;99.90;;;;;;4925881;29;20483;-68
2021/06/14 11:22:43;;;;;;;1.63;0.95;;;12.30;99.90;;;;;;4920192;29;20483;-70
2021/06/14 11:25:24;;;;;;;6.53;2.97;;;12.20;99.90;;;;;;4926277;29;20514;-68
2021/06/14 11:27:52;;;;;;;16.27;7.63;;;12.20;99.90;;;;;;4926781;29;20461;-68
2021/06/14 11:30:25;;;;;;;18.95;8.52;;;12.20;99.90;;;;;;4912878;29;20084;-73
2021/06/14 11:32:53;;;;;;;8.88;4.22;;;12.20;99.90;;;;;;4927720;29;20031;-68
2021/06/14 11:35:21;;;;;;;2.67;1.75;;;12.20;99.90;;;;;;4925433;29;20099;-69
2021/06/14 11:37:52;;;;;;;1.13;1.00;;;12.20;99.90;;;;;;4931460;29;20035;-70
2021/06/14 11:40:27;;;;;;;2.88;1.52;;;12.20;99.90;;;;;;4927126;29;20378;-70
2021/06/14 11:43:00;;;;;;;7.32;4.28;;;12.10;99.90;;;;;;4928458;29;20028;-70
2021/06/14 11:45:46;;;;;;;11.52;6.60;;;12.10;99.90;;;;;;4928736;29;20154;-68
2021/06/14 11:48:32;;;;;;;7.20;4.43;;;12.20;99.90;;;;;;4929653;29;22105;-69
2021/06/14 11:51:14;;;;;;;12.45;3.38;;;12.10;99.90;;;;;;4927411;29;20143;-69
2021/06/14 11:53:46;;;;;;;11.13;7.45;;;12.10;99.90;;;;;;4929786;29;20546;-68
2021/06/14 11:56:13;;;;;;;9.18;6.22;;;12.10;99.90;;;;;;4929973;29;20043;-69
2021/06/14 11:58:42;;;;;;;10.45;6.28;;;12.10;99.90;;;;;;4927593;29;20103;-69
2021/06/14 12:01:09;;;;;;;6.30;4.57;;;12.10;99.90;;;;;;4928819;29;20090;-69
2021/06/14 12:03:37;;;;;;;4.20;3.88;;;12.10;99.90;;;;;;4925701;29;20039;-69
2021/06/14 12:06:04;;;;;;;6.00;4.50;;;12.00;99.90;;;;;;4927875;29;20059;-69
2021/06/14 12:08:32;;;;;;;13.20;6.80;;;12.10;99.90;;;;;;4925768;29;21532;-69
2021/06/14 12:11:01;;;;;;;16.85;10.27;;;12.00;99.90;;;;;;4925581;29;20020;-68
2021/06/14 12:13:29;;;;;;;15.60;8.30;;;12.00;99.90;;;;;;4927500;29;20048;-67
2021/06/14 12:15:59;;;;;;;13.90;7.70;;;12.10;99.90;;;;;;4926683;29;20110;-69
2021/06/14 12:18:28;;;;;;;12.00;7.32;;;12.10;99.90;;;;;;4927870;29;20042;-71
2021/06/14 12:21:09;;;;;;;10.95;6.47;;;12.10;99.90;;;;;;4926560;29;20042;-70
2021/06/14 12:23:39;;;;;;;5.72;2.92;;;12.10;99.90;;;;;;4931532;29;20110;-68
2021/06/14 12:26:09;;;;;;;4.22;2.25;;;12.10;99.90;;;;;;4929120;29;20024;-73
2021/06/14 12:28:37;;;;;;;3.63;2.35;;;12.10;99.90;;;;;;4929591;29;20493;-70
2021/06/14 12:31:08;;;;;;;3.55;1.88;;;12.00;99.90;;;;;;4910726;29;20036;-69
2021/06/14 12:33:41;;;;;;;5.43;1.58;;;12.10;99.90;;;;;;4928564;29;20032;-69
2021/06/14 12:36:11;;;;;;;1.98;1.33;;;12.10;99.90;;;;;;4930982;29;20103;-69
2021/06/14 12:38:47;;;;;;;3.25;1.90;;;12.00;99.90;;;;;;4932578;29;20027;-72
2021/06/14 12:41:14;;;;;;;;;;;12.10;99.90;;;;;;4927669;29;20503;-72
2021/06/14 12:43:41;;;;;;;5.25;1.80;;;12.10;99.90;;;;;;4929205;29;19915;-71
2021/06/14 12:46:09;;;;;;;1.95;1.00;;;12.10;99.90;;;;;;4930481;29;20040;-70
2021/06/14 12:48:36;;;;;;;2.60;1.90;;;12.10;99.90;;;;;;4924881;29;20028;-72
2021/06/14 12:51:06;;;;;;;4.28;2.40;;;12.10;99.90;;;;;;4927631;29;20387;-70
2021/06/14 12:53:34;;;;;;;2.75;1.70;;;12.10;99.90;;;;;;4930796;29;20113;-70
2021/06/14 12:56:01;;;;;;;2.55;1.40;;;12.10;99.90;;;;;;4930487;29;20027;-71
2021/06/14 12:58:40;;;;;;;1.65;0.95;;;12.10;99.90;;;;;;4928820;29;20031;-71
2021/06/14 13:01:12;;;;;;;1.77;1.17;;;12.10;99.90;;;;;;4930474;29;20067;-70